Time;durP1;ratioP1;P1;durP2;ratioP2;P2;SDS_P1;SDS_P2;PMS_P1;PMS_P2;Temp;Humidity;BMP_temperature;BMP_pressure;BME280_temperature;BME280_humidity;BME280_pressure;Samples;Min_cycle;Max_cycle;Signal;HPM_P1;HPM_P2
2022/04/25 00:00:12;;;;;;;;;;;8.70;99.90;;;;;;5069446;28;20386;-56
2022/04/25 00:02:38;;;;;;;;;;;8.70;99.90;;;;;;5058292;28;19924;-56
2022/04/25 00:05:07;;;;;;;;;;;8.80;99.90;;;;;;5069622;28;19928;-56
2022/04/25 00:07:34;;;;;;;;;;;8.80;99.90;;;;;;5054306;28;19929;-57
2022/04/25 00:10:01;;;;;;;;;;;8.90;99.90;;;;;;5057082;28;20295;-56
2022/04/25 00:12:28;;;;;;;;;;;8.90;99.90;;;;;;5067547;28;19929;-57
2022/04/25 00:14:54;;;;;;;;;;;8.90;99.90;;;;;;5064186;28;19975;-57
2022/04/25 00:17:21;;;;;;;;;;;8.80;99.90;;;;;;5055001;28;19971;-57
2022/04/25 00:19:48;;;;;;;;;;;8.90;99.90;;;;;;5068898;28;19947;-56
2022/04/25 00:22:16;;;;;;;;;;;8.90;99.90;;;;;;5073509;28;19928;-56
2022/04/25 00:24:44;;;;;;;;;;;8.90;99.90;;;;;;5065380;28;19928;-57
2022/04/25 00:27:11;;;;;;;;;;;8.80;99.90;;;;;;5070057;28;20019;-57
2022/04/25 00:29:37;;;;;;;;;;;8.90;99.90;;;;;;5064474;28;19960;-57
2022/04/25 00:32:05;;;;;;;;;;;8.80;99.90;;;;;;5070995;28;20430;-57
2022/04/25 00:34:31;;;;;;;;;;;8.80;99.90;;;;;;5059148;28;19925;-57
2022/04/25 00:36:58;;;;;;;;;;;8.80;99.90;;;;;;5061227;28;19978;-57
2022/04/25 00:39:27;;;;;;;;;;;8.90;99.90;;;;;;5060078;28;19925;-58
2022/04/25 00:41:54;;;;;;;;;;;8.80;99.90;;;;;;5063251;28;19935;-57
2022/04/25 00:44:20;;;;;;;;;;;8.90;99.90;;;;;;5059018;28;20417;-57
2022/04/25 00:46:48;;;;;;;;;;;8.90;99.90;;;;;;5053280;28;19929;-57
2022/04/25 00:49:15;;;;;;;;;;;9.00;99.90;;;;;;5059682;28;19930;-57
2022/04/25 00:51:42;;;;;;;;;;;8.90;99.90;;;;;;5063970;28;20012;-57
2022/04/25 00:54:09;;;;;;;;;;;8.90;99.90;;;;;;5053370;28;20306;-57
2022/04/25 00:56:38;;;;;;;;;;;9.00;99.90;;;;;;5059347;28;19979;-57
2022/04/25 00:59:05;;;;;;;;;;;9.10;99.90;;;;;;5064928;28;19924;-57
2022/04/25 01:01:32;;;;;;;;;;;9.10;99.90;;;;;;5073040;28;19924;-57
2022/04/25 01:03:59;;;;;;;;;;;9.10;99.90;;;;;;5063340;28;20329;-57
2022/04/25 01:06:29;;;;;;;;;;;9.10;99.90;;;;;;5067411;28;19978;-57
2022/04/25 01:08:55;;;;;;;;;;;8.90;99.90;;;;;;5062186;28;19951;-57
2022/04/25 01:11:23;;;;;;;;;;;9.00;99.90;;;;;;5066723;28;19928;-57
2022/04/25 01:13:51;;;;;;;;;;;9.00;99.90;;;;;;5062566;28;19929;-57
2022/04/25 01:16:18;;;;;;;;;;;8.90;99.90;;;;;;5065813;28;19978;-57
2022/04/25 01:18:44;;;;;;;;;;;8.90;99.90;;;;;;5068883;28;19974;-57
2022/04/25 01:21:13;;;;;;;;;;;9.00;99.90;;;;;;5070371;28;19925;-57
2022/04/25 01:29:10;;;;;;;;;;;8.90;99.90;;;;;;5053511;28;20035;-57
2022/04/25 01:31:37;;;;;;;;;;;8.80;99.90;;;;;;5066921;28;20452;-57
2022/04/25 01:34:04;;;;;;;;;;;8.70;99.90;;;;;;5060893;28;20386;-57
2022/04/25 01:36:32;;;;;;;;;;;8.70;99.90;;;;;;5064977;28;19924;-57
2022/04/25 01:39:01;;;;;;;;;;;8.60;99.90;;;;;;5054000;28;19925;-57
2022/04/25 01:41:28;;;;;;;;;;;8.60;99.90;;;;;;5065377;28;19924;-57
2022/04/25 01:43:55;;;;;;;;;;;8.60;99.90;;;;;;5056892;28;19928;-57
2022/04/25 01:46:22;;;;;;;;;;;8.70;99.90;;;;;;5071948;28;19924;-57
2022/04/25 01:48:48;;;;;;;;;;;8.70;99.90;;;;;;5070359;28;20355;-57
2022/04/25 01:51:15;;;;;;;;;;;8.60;99.90;;;;;;5063003;28;20010;-57
2022/04/25 01:53:42;;;;;;;;;;;8.70;99.90;;;;;;5056371;28;19932;-57
2022/04/25 01:56:10;;;;;;;;;;;8.70;99.90;;;;;;5071929;28;19977;-57
2022/04/25 01:58:36;;;;;;;;;;;8.70;99.90;;;;;;5063951;28;19925;-57
2022/04/25 02:01:06;;;;;;;;;;;8.80;99.90;;;;;;5061692;28;20386;-57
2022/04/25 02:03:34;;;;;;;;;;;8.80;99.90;;;;;;5052388;28;20413;-57
2022/04/25 02:06:02;;;;;;;;;;;8.80;99.90;;;;;;5060522;28;19935;-57
2022/04/25 02:08:28;;;;;;;;;;;8.80;99.90;;;;;;5053969;28;19925;-56
2022/04/25 02:13:38;;;;;;;;;;;8.80;99.90;;;;;;5071329;28;20088;-56
2022/04/25 02:16:05;;;;;;;;;;;8.70;99.90;;;;;;5083243;28;19928;-56
2022/04/25 02:18:32;;;;;;;;;;;8.60;99.90;;;;;;5084122;28;19946;-56
2022/04/25 02:20:59;;;;;;;;;;;8.70;99.90;;;;;;5087540;28;20344;-56
2022/04/25 02:23:26;;;;;;;;;;;8.70;99.90;;;;;;5077711;28;19924;-56
2022/04/25 02:25:52;;;;;;;;;;;8.60;99.90;;;;;;5074590;28;19924;-56
2022/04/25 02:28:19;;;;;;;;;;;8.50;99.90;;;;;;5081826;28;19924;-56
2022/04/25 02:30:47;;;;;;;;;;;8.60;99.90;;;;;;5063653;28;20379;-55
2022/04/25 02:33:14;;;;;;;;;;;8.70;99.90;;;;;;5054505;28;20390;-56
2022/04/25 02:35:41;;;;;;;;;;;8.70;99.90;;;;;;5060167;28;19986;-56
2022/04/25 02:38:07;;;;;;;;;;;8.70;99.90;;;;;;5070084;28;19925;-56
2022/04/25 02:40:34;;;;;;;;;;;8.80;99.90;;;;;;5066130;28;19978;-56
2022/04/25 02:43:01;;;;;;;;;;;8.70;99.90;;;;;;5063173;28;19924;-56
2022/04/25 02:45:27;;;;;;;;;;;8.80;99.90;;;;;;5060541;28;20391;-56
2022/04/25 02:47:56;;;;;;;;;;;8.90;99.90;;;;;;5061867;28;19977;-56
2022/04/25 02:50:22;;;;;;;;;;;8.90;99.90;;;;;;5068603;28;19925;-56
2022/04/25 02:52:53;;;;;;;;;;;8.80;99.90;;;;;;5069476;28;19925;-56
2022/04/25 02:55:20;;;;;;;;;;;8.70;99.90;;;;;;5062411;28;19970;-56
2022/04/25 02:57:47;;;;;;;;;;;8.80;99.90;;;;;;5068651;28;19924;-56
2022/04/25 03:00:14;;;;;;;;;;;8.80;99.90;;;;;;5057960;28;19931;-56
2022/04/25 03:02:41;;;;;;;;;;;8.80;99.90;;;;;;5061423;28;19925;-57
2022/04/25 03:05:09;;;;;;;;;;;8.90;99.90;;;;;;5065053;28;19986;-56
2022/04/25 03:07:36;;;;;;;;;;;8.80;99.90;;;;;;5060786;28;19928;-56
2022/04/25 03:10:03;;;;;;;;;;;8.70;99.90;;;;;;5063731;28;19925;-56
2022/04/25 03:12:29;;;;;;;;;;;8.60;99.90;;;;;;5075230;28;19925;-56
2022/04/25 03:14:56;;;;;;;;;;;8.60;99.90;;;;;;5075012;28;19929;-56
2022/04/25 03:17:23;;;;;;;;;;;8.60;99.90;;;;;;5067405;28;20456;-56
2022/04/25 03:19:50;;;;;;;;;;;8.60;99.90;;;;;;5061981;28;19925;-56
2022/04/25 03:22:18;;;;;;;;;;;8.70;99.90;;;;;;5073616;28;19924;-56
2022/04/25 03:24:44;;;;;;;;;;;8.80;99.90;;;;;;5059429;28;19929;-56
2022/04/25 03:27:11;;;;;;;;;;;8.70;99.90;;;;;;5072637;28;19944;-56
2022/04/25 03:29:38;;;;;;;;;;;8.70;99.90;;;;;;5060498;28;19971;-56
2022/04/25 03:32:05;;;;;;;;;;;8.70;99.90;;;;;;5063756;28;20310;-56
2022/04/25 03:34:32;;;;;;;;;;;8.70;99.90;;;;;;5073357;28;20271;-56
2022/04/25 03:36:59;;;;;;;;;;;8.70;99.90;;;;;;5070803;28;19933;-56
2022/04/25 03:39:29;;;;;;;;;;;8.60;99.90;;;;;;5064755;28;19978;-56
2022/04/25 03:41:55;;;;;;;;;;;8.60;99.90;;;;;;5067121;28;19924;-56
2022/04/25 03:44:22;;;;;;;;;;;8.70;99.90;;;;;;5070014;28;20272;-56
2022/04/25 03:46:49;;;;;;;;;;;8.60;99.90;;;;;;5072027;28;20370;-56
2022/04/25 03:49:16;;;;;;;;;;;8.70;99.90;;;;;;5069285;28;20011;-56
2022/04/25 03:51:43;;;;;;;;;;;8.80;99.90;;;;;;5073789;28;19983;-56
2022/04/25 03:54:09;;;;;;;;;;;8.80;99.90;;;;;;5070368;28;19925;-56
2022/04/25 03:59:21;;;;;;;;;;;8.70;99.90;;;;;;5062887;28;20608;-56
2022/04/25 04:01:48;;;;;;;;;;;8.70;99.90;;;;;;5071287;28;19925;-56
2022/04/25 04:04:15;;;;;;;;;;;8.80;99.90;;;;;;5071580;28;19983;-56
2022/04/25 04:06:42;;;;;;;;;;;8.70;99.90;;;;;;5073387;28;19925;-56
2022/04/25 04:11:52;;;;;;;;;;;8.60;99.90;;;;;;5065398;28;19927;-56
2022/04/25 04:14:18;;;;;;;;;;;8.70;99.90;;;;;;5067084;28;19924;-56
2022/04/25 04:16:45;;;;;;;;;;;8.70;99.90;;;;;;5069784;28;19929;-56
2022/04/25 04:19:12;;;;;;;;;;;8.60;99.90;;;;;;5068230;28;19931;-58
2022/04/25 04:21:39;;;;;;;;;;;8.70;99.90;;;;;;5075269;28;19947;-56
2022/04/25 04:24:06;;;;;;;;;;;8.80;99.90;;;;;;5079721;28;20439;-55
2022/04/25 04:26:32;;;;;;;;;;;8.70;99.90;;;;;;5075549;28;19978;-56
2022/04/25 04:29:01;;;;;;;;;;;8.70;99.90;;;;;;5072296;28;19941;-55
2022/04/25 04:31:27;;;;;;;;;;;8.70;99.90;;;;;;5066466;28;20013;-55
2022/04/25 04:33:54;;;;;;;;;;;8.80;99.90;;;;;;5059706;28;19932;-56
2022/04/25 04:36:22;;;;;;;;;;;8.80;99.90;;;;;;5067354;28;20302;-58
2022/04/25 04:38:49;;;;;;;;;;;8.70;99.90;;;;;;5071772;28;19994;-56
2022/04/25 04:41:15;;;;;;;;;;;8.70;99.90;;;;;;5070267;28;20479;-56
2022/04/25 04:43:43;;;;;;;;;;;8.70;99.90;;;;;;5068231;28;19970;-56
2022/04/25 04:46:11;;;;;;;;;;;8.70;99.90;;;;;;5077280;28;20374;-56
2022/04/25 04:48:38;;;;;;;;;;;8.70;99.90;;;;;;5065135;28;19925;-55
2022/04/25 04:51:05;;;;;;;;;;;8.80;99.90;;;;;;5066359;28;20028;-56
2022/04/25 04:53:31;;;;;;;;;;;8.70;99.90;;;;;;5065089;28;19963;-55
2022/04/25 04:55:59;;;;;;;;;;;8.80;99.90;;;;;;5068836;28;20479;-55
2022/04/25 04:58:27;;;;;;;;;;;8.80;99.90;;;;;;5067587;28;19931;-56
2022/04/25 05:00:54;;;;;;;;;;;8.80;99.90;;;;;;5067845;28;19948;-56
2022/04/25 05:03:25;;;;;;;;;;;8.80;99.90;;;;;;5060936;28;19928;-56
2022/04/25 05:05:52;;;;;;;;;;;8.70;99.90;;;;;;5065175;28;20380;-55
2022/04/25 05:08:19;;;;;;;;;;;9.00;99.90;;;;;;5068281;28;19924;-56
2022/04/25 05:10:46;;;;;;;;;;;9.00;99.90;;;;;;5060976;28;20001;-56
2022/04/25 05:13:15;;;;;;;;;;;9.00;99.90;;;;;;5067353;28;19936;-55
2022/04/25 05:15:41;;;;;;;;;;;8.90;99.90;;;;;;5067375;28;19963;-56
2022/04/25 05:18:08;;;;;;;;;;;8.90;99.90;;;;;;5068052;28;19942;-55
2022/04/25 05:20:36;;;;;;;;;;;9.00;99.90;;;;;;5071841;28;20339;-56
2022/04/25 05:23:04;;;;;;;;;;;8.90;99.90;;;;;;5072485;22;20430;-48
2022/04/25 05:25:30;;;;;;;;;;;9.00;99.90;;;;;;5029194;28;19933;-48
2022/04/25 05:27:57;;;;;;;;;;;9.00;99.90;;;;;;5030595;28;20051;-48
2022/04/25 05:30:25;;;;;;;;;;;8.90;99.90;;;;;;5029216;28;19979;-49
2022/04/25 05:32:52;;;;;;;;;;;9.00;99.90;;;;;;5024919;28;19933;-49
2022/04/25 05:35:19;;;;;;;;;;;8.90;99.90;;;;;;5024194;28;20488;-48
2022/04/25 05:37:48;;;;;;;;;;;8.90;99.90;;;;;;5030488;28;21012;-48
2022/04/25 05:40:16;;;;;;;;;;;8.80;99.90;;;;;;5041414;28;19978;-48
2022/04/25 05:42:43;;;;;;;;;;;8.90;99.90;;;;;;5031635;28;20092;-48
2022/04/25 05:45:12;;;;;;;;;;;9.00;99.90;;;;;;5032853;28;19973;-48
2022/04/25 05:47:39;;;;;;;;;;;9.00;99.90;;;;;;5034362;28;19925;-48
2022/04/25 05:52:52;;;;;;;;;;;9.00;99.90;;;;;;5024298;28;19956;-48
2022/04/25 05:55:18;;;;;;;;;;;9.00;99.90;;;;;;5032349;28;19925;-49
2022/04/25 05:57:45;;;;;;;;;;;8.90;99.90;;;;;;5028968;28;19925;-49
2022/04/25 06:00:12;;;;;;;;;;;8.90;99.90;;;;;;5024864;28;20002;-48
2022/04/25 06:02:39;;;;;;;;;;;8.70;99.90;;;;;;5030224;28;20419;-48
2022/04/25 06:05:07;;;;;;;;;;;8.80;99.90;;;;;;5038137;28;19925;-48
2022/04/25 06:07:34;;;;;;;;;;;8.90;99.90;;;;;;5037021;28;19925;-48
2022/04/25 06:10:03;;;;;;;;;;;8.80;99.90;;;;;;5035567;28;20070;-48
2022/04/25 06:12:30;;;;;;;;;;;9.00;99.90;;;;;;5021059;28;20413;-47
2022/04/25 06:14:57;;;;;;;;;;;9.10;99.90;;;;;;5031596;28;19932;-48
2022/04/25 06:17:24;;;;;;;;;;;9.10;99.90;;;;;;5032393;28;19925;-49
2022/04/25 06:19:50;;;;;;;;;;;9.00;99.90;;;;;;5029018;28;19971;-48
2022/04/25 06:22:18;;;;;;;;;;;9.00;99.90;;;;;;5027079;28;19924;-48
2022/04/25 06:24:45;;;;;;;;;;;9.00;99.90;;;;;;5028654;28;20380;-49
2022/04/25 06:27:13;;;;;;;;;;;9.00;99.90;;;;;;5029868;28;19978;-48
2022/04/25 06:29:42;;;;;;;;;;;9.20;99.90;;;;;;5027532;28;19932;-48
2022/04/25 06:32:09;;;;;;;;;;;9.40;99.90;;;;;;5030658;28;20063;-48
2022/04/25 06:34:35;;;;;;;;;;;9.40;99.90;;;;;;5028721;28;19925;-48
2022/04/25 06:37:02;;;;;;;;;;;9.60;99.90;;;;;;5027751;28;20394;-47
2022/04/25 06:39:29;;;;;;;;;;;9.90;99.90;;;;;;5031316;28;19932;-49
2022/04/25 06:41:56;;;;;;;;;;;10.00;99.90;;;;;;5031124;28;20375;-49
2022/04/25 06:44:24;;;;;;;;;;;10.10;99.90;;;;;;5030325;28;19929;-48
2022/04/25 06:46:51;;;;;;;;;;;10.40;99.90;;;;;;5033261;28;19956;-48
2022/04/25 06:49:20;;;;;;;;;;;10.40;99.90;;;;;;5032299;28;20030;-48
2022/04/25 06:51:48;;;;;;;;;;;10.30;99.90;;;;;;5030037;28;19925;-48
2022/04/25 06:54:15;;;;;;;;;;;10.20;99.90;;;;;;5031993;28;19925;-49
2022/04/25 06:56:42;;;;;;;;;;;10.20;99.90;;;;;;5038488;28;19979;-48
2022/04/25 06:59:08;;;;;;;;;;;10.20;99.90;;;;;;5031320;28;20028;-48
2022/04/25 07:01:39;;;;;;;;;;;10.20;99.90;;;;;;5030733;28;19979;-48
2022/04/25 07:04:06;;;;;;;;;;;10.20;99.90;;;;;;5032600;28;19924;-48
2022/04/25 07:06:33;;;;;;;;;;;10.40;99.90;;;;;;5031775;28;19975;-49
2022/04/25 07:09:00;;;;;;;;;;;10.60;99.90;;;;;;5034604;28;19935;-49
2022/04/25 07:11:26;;;;;;;;;;;10.70;99.90;;;;;;5029470;28;19925;-47
2022/04/25 07:13:55;;;;;;;;;;;10.60;99.90;;;;;;5028240;28;19971;-49
2022/04/25 07:16:24;;;;;;;;;;;10.80;99.90;;;;;;5034502;28;20016;-48
2022/04/25 07:18:52;;;;;;;;;;;10.90;99.90;;;;;;5031528;28;19931;-49
2022/04/25 07:29:32;;;;;;;;;;;11.50;99.90;;;;;;5045858;28;19936;-48
2022/04/25 07:31:59;;;;;;;;;;;11.30;99.90;;;;;;5030517;28;20008;-49
2022/04/25 07:34:27;;;;;;;;;;;11.50;99.90;;;;;;5033373;28;19971;-49
2022/04/25 07:36:54;;;;;;;;;;;11.40;99.90;;;;;;5039610;28;19986;-48
2022/04/25 07:39:21;;;;;;;;;;;11.50;99.90;;;;;;5042803;28;19931;-48
2022/04/25 07:41:48;;;;;;;;;;;11.10;99.90;;;;;;5036468;28;19932;-49
2022/04/25 07:44:15;;;;;;;;;;;10.90;99.90;;;;;;5034734;28;19983;-48
2022/04/25 07:46:42;;;;;;;;;;;10.80;99.90;;;;;;5034037;28;19925;-49
2022/04/25 07:49:09;;;;;;;;;;;10.80;99.90;;;;;;5036444;28;19971;-48
2022/04/25 07:51:37;;;;;;;;;;;10.60;99.90;;;;;;5032265;28;19926;-49
2022/04/25 07:54:05;;;;;;;;;;;10.70;99.90;;;;;;5034864;28;19933;-48
2022/04/25 07:56:35;;;;;;;;;;;10.70;99.90;;;;;;5039553;28;20367;-48
2022/04/25 07:59:02;;;;;;;;;;;10.90;99.90;;;;;;5038040;28;19987;-48
2022/04/25 08:01:29;;;;;;;;;;;11.10;99.90;;;;;;5031097;28;19987;-48
2022/04/25 08:03:56;;;;;;;;;;;11.00;99.90;;;;;;5031504;28;19995;-49
2022/04/25 08:06:23;;;;;;;;;;;11.10;99.90;;;;;;5037802;28;19929;-49
2022/04/25 08:08:52;;;;;;;;;;;11.20;99.90;;;;;;5032936;28;20438;-49
2022/04/25 08:11:19;;;;;;;;;;;11.40;99.90;;;;;;5032011;28;19982;-49
2022/04/25 08:19:26;;;;;;;;;;;11.40;99.90;;;;;;5030477;28;20397;-49
2022/04/25 08:21:54;;;;;;;;;;;11.30;99.90;;;;;;5031385;28;19925;-49
2022/04/25 08:24:22;;;;;;;;;;;11.50;99.90;;;;;;5033422;28;20391;-48
2022/04/25 08:26:49;;;;;;;;;;;11.30;99.90;;;;;;5030122;28;20394;-49
2022/04/25 08:29:16;;;;;;;;;;;11.50;99.90;;;;;;5032808;28;19978;-48
2022/04/25 08:31:42;;;;;;;;;;;11.60;99.90;;;;;;5033384;28;20327;-49
2022/04/25 08:34:09;;;;;;;;;;;11.50;99.90;;;;;;5034837;28;20387;-48
2022/04/25 08:36:37;;;;;;;;;;;11.50;99.90;;;;;;5033942;28;20450;-49
2022/04/25 08:39:04;;;;;;;;;;;11.60;99.90;;;;;;5033412;28;20433;-48
2022/04/25 08:41:36;;;;;;;;;;;11.80;99.90;;;;;;5033828;28;19987;-48
2022/04/25 08:44:04;;;;;;;;;;;12.00;99.90;;;;;;5033409;28;19929;-49
2022/04/25 08:46:37;;;;;;;;;;;12.00;99.90;;;;;;5033450;28;19979;-49
2022/04/25 08:49:04;;;;;;;;;;;12.30;99.90;;;;;;5033348;28;19924;-50
2022/04/25 08:51:32;;;;;;;;;;;12.50;99.90;;;;;;5031472;28;19937;-48
2022/04/25 08:53:59;;;;;;;;;;;12.80;99.90;;;;;;5034143;28;19926;-50
2022/04/25 08:56:26;;;;;;;;;;;13.40;99.90;;;;;;5033180;28;19925;-50
2022/04/25 08:58:56;;;;;;;;;;;14.10;99.90;;;;;;5029247;28;19952;-49
2022/04/25 09:01:23;;;;;;;;;;;14.40;99.90;;;;;;5034011;28;19931;-49
2022/04/25 09:03:50;;;;;;;;;;;15.00;99.90;;;;;;5039074;28;20016;-49
2022/04/25 09:06:17;;;;;;;;;;;15.30;99.90;;;;;;5032797;28;20001;-49
2022/04/25 09:08:44;;;;;;;;;;;16.50;99.90;;;;;;5034289;28;19929;-50
2022/04/25 09:13:56;;;;;;;;;;;20.30;99.90;;;;;;5036495;28;20401;-50
2022/04/25 09:16:23;;;;;;;;;;;21.00;99.90;;;;;;5033467;28;19929;-51
2022/04/25 09:18:50;;;;;;;;;;;21.80;99.90;;;;;;5033348;28;20288;-49
2022/04/25 09:21:16;;;;;;;;;;;21.30;99.90;;;;;;5031292;28;20281;-50
2022/04/25 09:23:43;;;;;;;;;;;21.40;99.90;;;;;;5031875;28;19929;-49
2022/04/25 09:26:11;;;;;;;;;;;21.50;99.90;;;;;;5034074;28;19925;-50
2022/04/25 09:28:46;;;;;;;;;;;21.60;99.90;;;;;;5032544;28;20399;-51
2022/04/25 09:31:15;;;;;;;;;;;21.50;99.90;;;;;;5033612;28;19929;-51
2022/04/25 09:33:42;;;;;;;;;;;21.40;99.90;;;;;;5035422;28;19925;-50
2022/04/25 09:36:09;;;;;;;;;;;22.10;99.90;;;;;;5021274;28;19948;-50
2022/04/25 09:38:36;;;;;;;;;;;23.40;99.90;;;;;;5036068;28;19924;-50
2022/04/25 09:41:04;;;;;;;;;;;24.00;99.90;;;;;;5034827;28;19925;-49
2022/04/25 09:43:31;;;;;;;;;;;25.30;99.90;;;;;;5029053;28;19960;-50
2022/04/25 09:46:01;;;;;;;;;;;25.30;99.90;;;;;;5041935;28;19925;-51
2022/04/25 09:48:29;;;;;;;;;;;26.20;99.90;;;;;;5041879;28;19932;-51
2022/04/25 09:51:00;;;;;;;;;;;26.40;99.40;;;;;;5035019;28;19925;-51
2022/04/25 09:53:40;;;;;;;;;;;26.30;98.50;;;;;;5028446;28;19980;-51
2022/04/25 09:56:10;;;;;;;;;;;25.60;96.00;;;;;;5042462;28;19931;-50
2022/04/25 09:58:39;;;;;;;;;;;25.30;98.00;;;;;;5039794;28;19928;-51
2022/04/25 10:01:09;;;;;;;;;;;23.60;98.20;;;;;;5034223;28;19928;-49
2022/04/25 10:03:38;;;;;;;;;;;21.80;99.90;;;;;;5043767;28;19932;-50
2022/04/25 10:06:05;;;;;;;;;;;21.00;99.90;;;;;;5033600;28;19925;-49
2022/04/25 10:08:34;;;;;;;;;;;20.70;99.90;;;;;;5041176;28;20382;-50
2022/04/25 10:11:02;;;;;;;;;;;20.50;99.70;;;;;;5035762;28;20433;-49
2022/04/25 10:13:31;;;;;;;;;;;19.70;99.90;;;;;;5032131;28;19925;-51
2022/04/25 10:15:57;;;;;;;;;;;19.50;99.90;;;;;;5032193;28;19925;-51
2022/04/25 10:18:26;;;;;;;;;;;18.60;99.90;;;;;;5044401;28;19925;-48
2022/04/25 10:20:54;;;;;;;;;;;19.20;99.90;;;;;;5040499;28;19929;-51
2022/04/25 10:23:21;;;;;;;;;;;20.90;99.90;;;;;;5043637;28;19928;-51
2022/04/25 10:25:49;;;;;;;;;;;21.90;99.60;;;;;;5051904;28;19924;-50
2022/04/25 10:28:18;;;;;;;;;;;22.20;99.90;;;;;;5042331;28;20401;-51
2022/04/25 10:30:46;;;;;;;;;;;22.80;98.20;;;;;;5032525;28;19978;-51
2022/04/25 10:33:16;;;;;;;;;;;24.10;98.80;;;;;;5030287;28;19941;-50
2022/04/25 10:35:43;;;;;;;;;;;24.30;99.90;;;;;;5031138;28;19991;-50
2022/04/25 10:38:47;;;;;;;;;;;25.70;94.00;;;;;;5030740;28;19925;-50
2022/04/25 10:44:49;;;;;;;;;;;23.10;96.40;;;;;;5031003;28;20445;-51
2022/04/25 10:47:17;;;;;;;;;;;22.40;96.50;;;;;;5030817;28;19937;-50
2022/04/25 10:49:46;;;;;;;;;;;21.30;96.20;;;;;;5029345;28;20402;-49
2022/04/25 10:52:31;;;;;;;;;;;20.70;96.70;;;;;;5034987;28;19925;-50
2022/04/25 10:55:11;;;;;;;;;;;19.70;99.90;;;;;;5028932;28;19929;-49
2022/04/25 10:57:59;;;;;;;;;;;19.30;99.90;;;;;;5030580;28;19929;-50
2022/04/25 11:00:45;;;;;;;;;;;18.60;99.90;;;;;;5026465;28;19971;-49
2022/04/25 11:03:14;;;;;;;;;;;19.30;99.90;;;;;;5035280;28;19925;-49
2022/04/25 11:05:41;;;;;;;;;;;20.50;99.90;;;;;;5030570;28;19955;-50
2022/04/25 11:08:28;;;;;;;;;;;21.40;97.90;;;;;;5029907;28;19929;-50
2022/04/25 11:11:18;;;;;;;;;;;21.70;97.60;;;;;;5029433;28;19929;-50
2022/04/25 11:14:04;;;;;;;;;;;22.00;96.60;;;;;;5028243;28;20639;-50
2022/04/25 11:16:36;;;;;;;;;;;22.00;98.10;;;;;;5033058;28;19987;-50
2022/04/25 11:19:07;;;;;;;;;;;21.20;99.20;;;;;;5039014;28;20418;-49
2022/04/25 11:21:35;;;;;;;;;;;21.20;99.40;;;;;;5036568;28;19932;-50
2022/04/25 11:24:03;;;;;;;;;;;21.10;99.90;;;;;;5078359;22;19985;-58
2022/04/25 11:26:49;;;;;;;;;;;20.80;99.20;;;;;;5063133;28;20402;-60
2022/04/25 11:29:16;;;;;;;;;;;20.50;99.90;;;;;;5070319;28;19925;-60
2022/04/25 11:31:44;;;;;;;;;;;20.50;98.70;;;;;;5070077;28;19925;-59
2022/04/25 11:34:12;;;;;;;;;;;20.50;98.90;;;;;;5061130;28;19924;-59
2022/04/25 11:36:40;;;;;;;;;;;20.20;96.90;;;;;;5064455;28;19971;-60
2022/04/25 11:41:51;;;;;;;;;;;19.90;99.90;;;;;;5065043;28;19973;-59
2022/04/25 11:44:18;;;;;;;;;;;20.20;99.90;;;;;;5067723;28;20275;-60
2022/04/25 11:46:47;;;;;;;;;;;19.60;99.40;;;;;;5069276;28;19986;-60
2022/04/25 11:49:26;;;;;;;;;;;19.80;99.90;;;;;;5057317;28;19960;-60
2022/04/25 11:51:52;;;;;;;;;;;19.70;99.90;;;;;;5068828;28;19925;-58
2022/04/25 11:54:19;;;;;;;;;;;19.30;99.90;;;;;;5065350;28;19925;-57
2022/04/25 11:56:46;;;;;;;;;;;18.10;99.90;;;;;;5064809;28;19925;-58
2022/04/25 11:59:14;;;;;;;;;;;18.30;99.90;;;;;;5064737;28;19932;-57
2022/04/25 12:01:42;;;;;;;;;;;17.50;99.90;;;;;;5066740;28;19928;-57
2022/04/25 12:04:17;;;;;;;;;;;17.40;99.90;;;;;;5064208;28;20002;-57
2022/04/25 12:06:48;;;;;;;;;;;17.00;99.90;;;;;;5057669;28;20298;-58
2022/04/25 12:17:36;;;;;;;;;;;16.10;99.90;;;;;;5060853;28;20066;-57
2022/04/25 12:20:04;;;;;;;;;;;15.80;99.90;;;;;;5066970;28;19928;-57
2022/04/25 12:22:31;;;;;;;;;;;15.20;99.90;;;;;;5062055;28;19970;-57
2022/04/25 12:25:14;;;;;;;;;;;15.10;99.90;;;;;;5060996;28;19932;-57
2022/04/25 12:27:56;;;;;;;;;;;15.10;99.90;;;;;;5056547;28;19978;-57
2022/04/25 12:30:23;;;;;;;;;;;14.70;99.90;;;;;;5053211;28;19983;-56
2022/04/25 12:32:49;;;;;;;;;;;14.40;99.90;;;;;;5066486;28;19978;-56
2022/04/25 12:35:21;;;;;;;;;;;14.10;99.90;;;;;;5059515;28;19925;-57
2022/04/25 12:37:47;;;;;;;;;;;14.10;99.90;;;;;;5061306;28;19929;-57
2022/04/25 12:40:14;;;;;;;;;;;13.60;99.90;;;;;;5071350;28;19932;-57
2022/04/25 12:42:44;;;;;;;;;;;13.50;99.90;;;;;;5066926;28;19994;-57
2022/04/25 12:45:11;;;;;;;;;;;13.20;99.90;;;;;;5072250;28;19925;-57
2022/04/25 12:47:38;;;;;;;;;;;13.30;99.90;;;;;;5069538;28;19946;-57
2022/04/25 12:50:06;;;;;;;;;;;13.70;99.90;;;;;;5069416;28;20310;-57
2022/04/25 12:52:49;;;;;;;;;;;13.90;99.90;;;;;;5063035;28;19943;-58
2022/04/25 12:55:16;;;;;;;;;;;14.00;99.90;;;;;;5072664;28;19928;-57
2022/04/25 12:57:50;;;;;;;;;;;14.10;99.90;;;;;;5063422;28;19971;-57
2022/04/25 13:00:17;;;;;;;;;;;13.80;99.90;;;;;;5060215;28;20015;-57
2022/04/25 13:02:43;;;;;;;;;;;13.70;99.90;;;;;;5060135;28;19989;-57
2022/04/25 13:05:12;;;;;;;;;;;13.80;99.90;;;;;;5068455;28;19924;-57
2022/04/25 13:07:39;;;;;;;;;;;13.90;99.90;;;;;;5069186;28;20404;-57
2022/04/25 13:10:09;;;;;;;;;;;13.80;99.90;;;;;;5060410;28;20252;-57
2022/04/25 13:12:37;;;;;;;;;;;13.70;99.90;;;;;;5066996;28;19924;-58
2022/04/25 13:15:05;;;;;;;;;;;13.50;99.90;;;;;;5063183;28;19932;-58
2022/04/25 13:17:32;;;;;;;;;;;13.60;99.90;;;;;;5069869;28;20367;-57
2022/04/25 13:19:59;;;;;;;;;;;13.70;99.90;;;;;;5056532;28;20428;-58
2022/04/25 13:22:26;;;;;;;;;;;13.90;99.90;;;;;;5059586;28;19925;-58
2022/04/25 13:24:52;;;;;;;;;;;13.90;99.90;;;;;;5059459;28;19986;-57
2022/04/25 13:27:21;;;;;;;;;;;13.80;99.90;;;;;;5062918;28;19929;-57
2022/04/25 13:29:48;;;;;;;;;;;13.70;99.90;;;;;;5059966;28;19928;-57
2022/04/25 13:32:15;;;;;;;;;;;13.60;99.90;;;;;;5062251;28;19932;-57
2022/04/25 13:34:42;;;;;;;;;;;13.40;99.90;;;;;;5062627;28;19929;-57
2022/04/25 13:37:09;;;;;;;;;;;13.70;99.90;;;;;;5052697;28;19929;-57
2022/04/25 13:39:35;;;;;;;;;;;14.10;99.90;;;;;;5064778;28;19986;-57
2022/04/25 13:42:03;;;;;;;;;;;14.00;99.90;;;;;;5066153;28;20001;-57
2022/04/25 13:44:31;;;;;;;;;;;14.00;99.90;;;;;;5062819;28;19924;-57
2022/04/25 13:46:58;;;;;;;;;;;13.90;99.90;;;;;;5056888;28;20070;-57
2022/04/25 13:49:25;;;;;;;;;;;13.80;99.90;;;;;;5065638;28;20378;-57
2022/04/25 13:51:52;;;;;;;;;;;13.80;99.90;;;;;;5066737;28;19931;-57
2022/04/25 13:54:19;;;;;;;;;;;13.90;99.90;;;;;;5058617;28;20382;-57
2022/04/25 13:56:46;;;;;;;;;;;14.10;99.90;;;;;;5056610;28;20405;-56
2022/04/25 13:59:13;;;;;;;;;;;14.30;99.90;;;;;;5051520;28;19951;-57
2022/04/25 14:01:41;;;;;;;;;;;14.20;99.90;;;;;;5056240;28;20394;-57
2022/04/25 14:04:07;;;;;;;;;;;14.10;99.90;;;;;;5060225;28;19932;-57
2022/04/25 14:06:34;;;;;;;;;;;13.80;99.90;;;;;;5071004;28;19928;-57
2022/04/25 14:09:02;;;;;;;;;;;13.80;99.90;;;;;;5067236;28;20000;-57
2022/04/25 14:11:29;;;;;;;;;;;14.00;99.90;;;;;;5057743;28;20369;-57
2022/04/25 14:13:56;;;;;;;;;;;14.10;99.90;;;;;;5057811;28;19952;-57
2022/04/25 14:16:23;;;;;;;;;;;14.10;99.90;;;;;;5065206;28;19925;-57
2022/04/25 14:18:51;;;;;;;;;;;14.10;99.90;;;;;;5059111;28;19929;-57
2022/04/25 14:21:18;;;;;;;;;;;14.00;99.90;;;;;;5053638;28;19925;-56
2022/04/25 14:23:45;;;;;;;;;;;14.10;99.90;;;;;;5067545;28;19928;-56
2022/04/25 14:26:13;;;;;;;;;;;14.20;99.90;;;;;;5071685;28;19969;-57
2022/04/25 14:28:39;;;;;;;;;;;14.50;99.90;;;;;;5071357;28;19929;-57
2022/04/25 14:31:06;;;;;;;;;;;14.80;99.90;;;;;;5068181;28;20394;-56
2022/04/25 14:33:33;;;;;;;;;;;15.10;99.90;;;;;;5062962;28;19986;-57
2022/04/25 14:36:03;;;;;;;;;;;15.00;99.90;;;;;;5071816;28;19970;-57
2022/04/25 14:38:30;;;;;;;;;;;14.80;99.90;;;;;;5071203;28;19924;-57
2022/04/25 14:40:57;;;;;;;;;;;14.90;99.90;;;;;;5065155;28;19925;-57
2022/04/25 14:43:25;;;;;;;;;;;15.10;99.90;;;;;;5055772;28;19994;-57
2022/04/25 14:45:55;;;;;;;;;;;15.10;99.90;;;;;;5069251;28;19925;-57
2022/04/25 14:48:22;;;;;;;;;;;15.10;99.90;;;;;;5059254;28;20306;-57
2022/04/25 14:56:21;;;;;;;;;;;15.40;99.90;;;;;;5055366;28;20078;-57
2022/04/25 14:58:47;;;;;;;;;;;15.20;99.90;;;;;;5071147;28;20003;-57
2022/04/25 15:01:14;;;;;;;;;;;15.30;99.90;;;;;;5064668;28;20380;-56
2022/04/25 15:03:41;;;;;;;;;;;15.20;99.90;;;;;;5063081;28;19925;-57
2022/04/25 15:06:07;;;;;;;;;;;15.10;99.90;;;;;;5055342;28;19924;-57
2022/04/25 15:08:35;;;;;;;;;;;14.90;99.90;;;;;;5054819;28;20353;-57
2022/04/25 15:11:04;;;;;;;;;;;15.00;99.90;;;;;;5056336;28;20408;-57
2022/04/25 15:13:32;;;;;;;;;;;15.30;99.90;;;;;;5069362;28;20378;-57
2022/04/25 15:15:58;;;;;;;;;;;15.10;99.90;;;;;;5075105;28;20362;-57
2022/04/25 15:18:25;;;;;;;;;;;14.90;99.90;;;;;;5074645;28;20069;-58
2022/04/25 15:20:53;;;;;;;;;;;14.80;99.90;;;;;;5072187;28;19933;-58